createdAt,value
2018-04-28T10:58:44.796Z,19.84
2018-04-28T11:01:14.296Z,20.12
2018-04-28T11:03:43.608Z,20.68
2018-04-28T11:06:14.554Z,20.76
2018-04-28T11:08:44.204Z,20.85
2018-04-28T11:11:13.362Z,20.97
2018-04-28T11:13:42.783Z,21.11
2018-04-28T11:16:12.370Z,21.34
2018-04-28T11:18:43.396Z,21.45
2018-04-28T11:21:13.141Z,21.46
2018-04-28T11:23:40.654Z,21.54
2018-04-28T11:26:09.798Z,21.57
2018-04-28T11:28:39.462Z,21.60
2018-04-28T11:31:09.472Z,21.63
2018-04-28T11:33:40.069Z,21.83
2018-04-28T11:36:08.170Z,21.77
2018-04-28T11:38:38.331Z,21.64
2018-04-28T11:41:07.558Z,21.67
2018-04-28T11:43:37.568Z,21.73
2018-04-28T11:46:06.931Z,21.84
2018-04-28T11:48:36.509Z,21.91
2018-04-28T11:51:05.860Z,21.91
2018-04-28T11:53:34.803Z,21.93
2018-04-28T11:56:05.005Z,21.94
2018-04-28T11:58:34.707Z,22.20
2018-04-28T12:01:05.180Z,22.26
2018-04-28T12:15:29.959Z,22.31
2018-04-28T12:17:57.434Z,22.08
2018-04-28T12:20:24.948Z,22.00
2018-04-28T12:22:54.317Z,22.26
2018-04-28T12:25:23.740Z,22.67
2018-04-28T12:27:53.350Z,22.63
2018-04-28T12:30:24.900Z,22.68
2018-04-28T12:32:54.307Z,23.08
2018-04-28T12:35:23.774Z,23.37
2018-04-28T12:37:53.910Z,24.05
2018-04-28T12:40:23.519Z,25.01
2018-04-28T12:42:53.749Z,25.56
2018-04-28T12:45:23.954Z,26.20
2018-04-28T12:47:55.874Z,26.89
2018-04-28T12:50:25.491Z,27.65
2018-04-28T12:52:59.854Z,28.74
2018-04-28T12:55:38.114Z,28.37
2018-04-28T12:58:09.161Z,29.13
2018-04-28T13:00:36.992Z,30.39
2018-04-28T13:03:06.469Z,30.70
2018-04-28T13:05:37.697Z,30.85
2018-04-28T13:08:08.921Z,29.89
2018-04-28T13:10:38.396Z,30.50
2018-04-28T13:13:08.304Z,31.25
2018-04-28T13:15:37.557Z,31.66
2018-04-28T13:18:10.248Z,31.22
2018-04-28T13:20:39.702Z,31.53
2018-04-28T13:23:13.723Z,31.24
2018-04-28T13:25:44.018Z,31.09
2018-04-28T13:28:14.044Z,31.08
2018-04-28T13:30:43.212Z,31.47
2018-04-28T13:33:12.790Z,30.57
2018-04-28T13:35:41.896Z,30.45
2018-04-28T13:38:12.378Z,30.78
2018-04-28T13:40:41.343Z,30.60
2018-04-28T13:43:10.100Z,29.68
2018-04-28T13:45:39.281Z,28.88
2018-04-28T13:48:08.575Z,27.80
2018-04-28T13:50:38.308Z,27.71
2018-04-28T13:53:05.881Z,27.75
2018-04-28T13:55:35.961Z,27.78
2018-04-28T13:58:05.068Z,28.65
2018-04-28T14:00:34.107Z,28.42
2018-04-28T14:03:03.429Z,28.07
2018-04-28T14:05:31.001Z,28.10
2018-04-28T14:08:00.166Z,28.64
2018-04-28T14:10:29.846Z,28.61
2018-04-28T14:12:59.142Z,28.65
2018-04-28T14:15:28.615Z,28.44
2018-04-28T14:17:58.256Z,28.74
2018-04-28T14:20:30.634Z,28.33
2018-04-28T14:23:00.224Z,27.66
2018-04-28T14:25:30.260Z,27.55
2018-04-28T14:28:03.936Z,28.01
2018-04-28T14:30:33.413Z,27.32
2018-04-28T14:33:03.264Z,26.52
2018-04-28T14:35:31.265Z,26.92
2018-04-28T14:38:00.804Z,27.40
2018-04-28T14:40:31.181Z,27.36
2018-04-28T14:43:04.332Z,27.33
2018-04-28T14:45:33.661Z,27.00
2018-04-28T14:48:02.803Z,26.69
2018-04-28T14:50:32.978Z,26.90
2018-04-28T14:53:03.326Z,26.47
2018-04-28T14:55:32.695Z,26.17
2018-04-28T14:58:02.145Z,26.23
2018-04-28T15:00:31.931Z,26.52
2018-04-28T15:03:01.518Z,26.66
2018-04-28T15:05:30.697Z,26.46
2018-04-28T15:08:00.845Z,26.45
2018-04-28T15:10:32.104Z,26.18
2018-04-28T15:13:01.657Z,26.15
2018-04-28T15:15:31.095Z,25.83
2018-04-28T15:17:59.992Z,25.57
2018-04-28T15:20:28.697Z,24.98
2018-04-28T15:22:58.122Z,24.94
2018-04-28T15:25:27.510Z,25.26
2018-04-28T15:27:56.679Z,25.08
2018-04-28T15:30:26.338Z,25.27
2018-04-28T15:32:55.603Z,25.27
2018-04-28T15:35:26.677Z,24.82
2018-04-28T15:37:55.936Z,24.72
2018-04-28T15:40:25.390Z,24.64
2018-04-28T15:42:54.543Z,24.48
2018-04-28T15:45:23.836Z,24.13
2018-04-28T15:47:53.179Z,24.09
2018-04-28T15:50:20.765Z,24.08
2018-04-28T15:52:50.065Z,23.84
2018-04-28T15:55:21.645Z,23.58
2018-04-28T15:57:51.472Z,23.54
2018-04-28T16:00:21.577Z,23.38
2018-04-28T16:02:51.327Z,23.08
2018-04-28T16:05:20.529Z,23.01
2018-04-28T16:07:49.794Z,23.01
2018-04-28T16:10:19.408Z,22.95
2018-04-28T16:12:49.083Z,23.01
2018-04-28T16:15:18.509Z,22.95
2018-04-28T16:17:52.171Z,22.85
2018-04-28T16:20:20.388Z,22.45
2018-04-28T16:22:54.169Z,22.43
2018-04-28T16:25:22.818Z,22.63
2018-04-28T16:27:53.320Z,22.48
2018-04-28T16:30:22.783Z,22.34
2018-04-28T16:32:51.457Z,22.34
2018-04-28T16:35:20.586Z,22.26
2018-04-28T16:37:49.767Z,22.18
2018-04-28T16:40:19.569Z,22.13
2018-04-28T16:42:50.563Z,22.00
2018-04-28T16:45:19.737Z,21.82
2018-04-28T16:47:49.300Z,21.71
2018-04-28T16:50:18.549Z,21.91
2018-04-28T16:52:48.228Z,21.68
2018-04-28T16:55:17.418Z,21.71
2018-04-28T16:57:47.122Z,21.56
2018-04-28T17:00:16.399Z,21.46
2018-04-28T17:02:45.903Z,21.63
2018-04-28T17:05:15.167Z,21.63
2018-04-28T17:07:44.413Z,21.55
2018-04-28T17:10:13.958Z,21.36
2018-04-28T17:12:41.923Z,21.21
2018-04-28T17:15:11.534Z,21.27
2018-04-28T17:17:52.392Z,21.35
2018-04-28T17:20:22.110Z,21.20
2018-04-28T17:22:52.472Z,21.13
2018-04-28T17:25:22.950Z,21.11
2018-04-28T17:27:52.295Z,21.19
2018-04-28T17:30:21.744Z,21.12
2018-04-28T17:32:50.991Z,21.15
2018-04-28T17:35:22.016Z,21.18
2018-04-28T17:37:51.336Z,21.24
2018-04-28T17:40:20.669Z,21.15
2018-04-28T17:42:49.013Z,21.13
2018-04-28T17:45:18.451Z,21.13
2018-04-28T17:47:48.109Z,20.99
2018-04-28T17:50:18.221Z,20.98
2018-04-28T17:52:47.987Z,20.98
2018-04-28T17:55:17.456Z,20.98
2018-04-28T17:57:46.885Z,21.07
2018-04-28T18:00:14.384Z,20.90
2018-04-28T18:02:43.792Z,20.78
2018-04-28T18:05:12.979Z,20.74
2018-04-28T18:07:42.816Z,20.77
2018-04-28T18:10:12.859Z,20.68
2018-04-28T18:12:43.005Z,20.43
2018-04-28T18:15:12.871Z,20.41
2018-04-28T18:17:42.944Z,20.46
2018-04-28T18:20:12.308Z,20.48
2018-04-28T18:22:41.447Z,20.36
2018-04-28T18:25:11.386Z,20.31
2018-04-28T18:27:40.497Z,20.32
2018-04-28T18:30:10.732Z,20.38
2018-04-28T18:32:40.024Z,20.12
2018-04-28T18:35:09.957Z,20.12
2018-04-28T18:37:39.096Z,20.18
2018-04-28T18:40:08.576Z,20.24
2018-04-28T18:42:38.101Z,20.25
2018-04-28T18:45:07.436Z,20.06
2018-04-28T18:47:41.370Z,20.07
2018-04-28T18:50:10.747Z,20.02
2018-04-28T18:52:40.359Z,20.02
2018-04-28T18:55:10.353Z,19.97
2018-04-28T18:57:40.092Z,19.90
2018-04-28T19:00:09.263Z,20.01
2018-04-28T19:02:39.180Z,19.86
2018-04-28T19:05:08.910Z,19.68
2018-04-28T19:07:38.102Z,19.78
2018-04-28T19:10:07.802Z,19.84
2018-04-28T19:12:35.306Z,19.93
2018-04-28T19:15:02.790Z,19.93
2018-04-28T19:17:32.053Z,19.99
2018-04-28T19:20:00.593Z,19.98
2018-04-28T19:22:30.298Z,19.91
2018-04-28T19:24:59.287Z,19.91
2018-04-28T19:27:29.587Z,19.98
2018-04-28T19:29:59.977Z,19.99
2018-04-28T19:32:34.038Z,19.89
2018-04-28T19:35:03.435Z,19.88
2018-04-28T19:37:32.931Z,19.87
2018-04-28T19:40:02.353Z,19.96
2018-04-28T19:42:32.519Z,19.99
2018-04-28T19:45:02.091Z,20.00
2018-04-28T19:47:31.884Z,19.97
2018-04-28T19:50:02.481Z,19.79
2018-04-28T19:52:30.174Z,19.84
2018-04-28T19:55:06.747Z,19.86
2018-04-28T19:57:38.114Z,19.76
2018-04-28T20:00:14.304Z,19.76
2018-04-28T20:02:43.991Z,19.71
2018-04-28T20:05:12.131Z,19.65
2018-04-28T20:07:42.925Z,19.53
2018-04-28T20:10:12.289Z,19.49
2018-04-28T20:12:41.863Z,19.29
2018-04-28T20:15:10.497Z,19.34
2018-04-28T20:17:41.012Z,19.44
2018-04-28T20:20:09.350Z,19.33
2018-04-28T20:22:49.437Z,19.26
2018-04-28T20:25:22.842Z,19.27
2018-04-28T20:27:51.697Z,19.26
2018-04-28T20:30:21.889Z,19.27
2018-04-28T20:32:49.391Z,19.25
2018-04-28T20:35:19.825Z,19.30
2018-04-28T20:37:49.903Z,19.26
2018-04-28T20:40:19.504Z,19.14
2018-04-28T20:42:48.848Z,19.01
2018-04-28T20:45:22.634Z,19.00
2018-04-28T20:47:50.164Z,18.82
2018-04-28T20:50:20.074Z,18.72
2018-04-28T20:52:49.216Z,18.58
2018-04-28T20:55:18.553Z,18.41
2018-04-28T20:57:56.077Z,18.31
2018-04-28T21:00:27.110Z,18.34
2018-04-28T21:02:56.647Z,18.47
2018-04-28T21:05:25.956Z,18.50
2018-04-28T21:07:55.508Z,18.38
2018-04-28T21:10:24.680Z,18.38
2018-04-28T21:12:52.242Z,18.49
2018-04-28T21:15:21.383Z,18.53
2018-04-28T21:17:51.174Z,18.40
2018-04-28T21:20:20.515Z,18.32
2018-04-28T21:22:50.157Z,18.27
2018-04-28T21:25:19.228Z,18.21
2018-04-28T21:27:48.322Z,18.24
2018-04-28T21:30:17.879Z,18.30
2018-04-28T21:32:47.356Z,18.20
2018-04-28T21:35:16.811Z,18.16
2018-04-28T21:37:46.386Z,17.81
2018-04-28T21:40:16.101Z,17.54
2018-04-28T21:42:45.218Z,17.19
2018-04-28T21:45:14.143Z,16.94
2018-04-28T21:47:44.599Z,16.60
2018-04-28T21:50:18.067Z,16.43
2018-04-28T21:52:47.388Z,16.39
2018-04-28T21:55:16.960Z,16.42
2018-04-28T21:57:46.362Z,16.44
2018-04-28T22:00:15.923Z,16.61
2018-04-28T22:02:45.153Z,16.61
2018-04-28T22:05:12.627Z,16.62
2018-04-28T22:07:42.548Z,16.73
2018-04-28T22:10:11.866Z,16.68
2018-04-28T22:12:41.271Z,16.60
2018-04-28T22:15:10.656Z,16.46
2018-04-28T22:17:40.228Z,16.19
2018-04-28T22:20:09.201Z,16.17
2018-04-28T22:22:42.944Z,16.21
2018-04-28T22:25:12.924Z,16.23
2018-04-28T22:27:45.780Z,16.25
2018-04-28T22:30:15.487Z,16.33
2018-04-28T22:32:44.925Z,16.39
2018-04-28T22:35:15.031Z,16.32
2018-04-28T22:37:44.066Z,16.25
2018-04-28T22:40:14.095Z,16.09
2018-04-28T22:42:44.093Z,16.21
2018-04-28T22:45:14.278Z,16.29
2018-04-28T22:47:43.831Z,16.12
2018-04-28T22:50:13.156Z,16.08
2018-04-28T22:52:42.505Z,16.42
2018-04-28T22:55:12.633Z,16.48
2018-04-28T22:57:41.847Z,16.64
2018-04-28T23:00:09.294Z,16.69
2018-04-28T23:02:38.148Z,16.69
2018-04-28T23:05:06.709Z,16.65
2018-04-28T23:07:34.617Z,16.59
2018-04-28T23:10:03.754Z,16.68
2018-04-28T23:12:32.434Z,16.52
2018-04-28T23:15:01.522Z,16.17
2018-04-28T23:17:29.782Z,15.94
2018-04-28T23:19:59.482Z,16.07
2018-04-28T23:22:27.634Z,16.04
2018-04-28T23:24:56.627Z,15.99
2018-04-28T23:27:25.852Z,15.90
2018-04-28T23:29:53.655Z,15.75
2018-04-28T23:32:22.637Z,15.75
2018-04-28T23:34:53.621Z,15.93
2018-04-28T23:37:21.473Z,16.09
2018-04-28T23:39:52.298Z,16.28
2018-04-28T23:42:21.446Z,16.39
2018-04-28T23:44:51.173Z,16.45
2018-04-28T23:47:20.919Z,16.37
2018-04-28T23:49:49.103Z,16.38
2018-04-28T23:52:19.053Z,16.45
2018-04-28T23:54:48.475Z,16.44
2018-04-28T23:57:18.968Z,16.47
2018-04-28T23:59:48.479Z,16.43
